Time;durP1;ratioP1;P1;durP2;ratioP2;P2;SDS_P1;SDS_P2;PMS_P1;PMS_P2;Temp;Humidity;BMP_temperature;BMP_pressure;BME280_temperature;BME280_humidity;BME280_pressure;Samples;Min_cycle;Max_cycle;Signal;HPM_P1;HPM_P2
2022/09/17 00:01:14;;;;;;;16.23;2.85;;;;;;;;;;5054573;28;20045;-63
2022/09/17 00:03:40;;;;;;;14.23;1.87;;;;;;;;;;5054670;28;20036;-63
2022/09/17 00:06:07;;;;;;;16.08;2.47;;;;;;;;;;5045994;28;20752;-63
2022/09/17 00:08:35;;;;;;;21.10;2.53;;;;;;;;;;5023542;28;20044;-64
2022/09/17 00:11:07;;;;;;;16.65;2.40;;;;;;;;;;5026303;28;20052;-64
2022/09/17 00:13:33;;;;;;;15.73;2.20;;;;;;;;;;5042673;28;20038;-64
2022/09/17 00:15:59;;;;;;;16.15;2.47;;;;;;;;;;5042458;28;20044;-64
2022/09/17 00:18:25;;;;;;;16.45;2.30;;;;;;;;;;5033162;28;20041;-64
2022/09/17 00:20:52;;;;;;;14.93;2.28;;;;;;;;;;5050013;28;20068;-64
2022/09/17 00:23:18;;;;;;;14.57;2.38;;;;;;;;;;5050568;28;20449;-64
2022/09/17 00:25:45;;;;;;;14.02;2.35;;;;;;;;;;5052681;28;20067;-64
2022/09/17 00:28:14;;;;;;;13.57;2.45;;;;;;;;;;5052639;28;20044;-64
2022/09/17 00:30:41;;;;;;;15.18;2.65;;;;;;;;;;5038086;28;20055;-64
2022/09/17 00:33:07;;;;;;;18.00;2.58;;;;;;;;;;5052580;28;20095;-64
2022/09/17 00:35:33;;;;;;;14.05;2.90;;;;;;;;;;5051644;28;20045;-64
2022/09/17 00:37:59;;;;;;;16.88;2.40;;;;;;;;;;5053395;28;20045;-64
2022/09/17 00:40:25;;;;;;;11.50;2.38;;;;;;;;;;5053367;28;20037;-64
2022/09/17 00:42:54;;;;;;;16.50;2.47;;;;;;;;;;5051731;28;20494;-64
2022/09/17 00:45:21;;;;;;;12.43;1.90;;;;;;;;;;5052797;28;20120;-64
2022/09/17 00:47:51;;;;;;;10.57;2.30;;;;;;;;;;5049343;28;20048;-64
2022/09/17 00:50:17;;;;;;;15.80;2.20;;;;;;;;;;5051926;28;20115;-64
2022/09/17 00:52:45;;;;;;;15.10;2.50;;;;;;;;;;5051965;28;20120;-64
2022/09/17 00:55:14;;;;;;;11.07;2.08;;;;;;;;;;5053580;28;20045;-63
2022/09/17 00:57:42;;;;;;;16.25;2.38;;;;;;;;;;5033238;28;20051;-64
2022/09/17 01:00:08;;;;;;;14.30;2.10;;;;;;;;;;5034258;28;20045;-64
2022/09/17 01:02:34;;;;;;;13.25;2.25;;;;;;;;;;5036873;28;20040;-64
2022/09/17 01:05:00;;;;;;;12.48;1.85;;;;;;;;;;5052660;28;20053;-64
2022/09/17 01:07:29;;;;;;;14.15;2.22;;;;;;;;;;5052645;28;20048;-64
2022/09/17 01:09:59;;;;;;;15.82;1.95;;;;;;;;;;5051176;28;20070;-64
2022/09/17 01:12:43;;;;;;;15.98;2.15;;;;;;;;;;5050801;28;20033;-64
2022/09/17 01:15:34;;;;;;;11.57;2.00;;;;;;;;;;5050609;28;20463;-64
2022/09/17 01:18:03;;;;;;;14.73;2.90;;;;;;;;;;5052902;28;20049;-64
2022/09/17 01:20:37;;;;;;;10.52;2.10;;;;;;;;;;5051989;28;20106;-64
2022/09/17 01:23:03;;;;;;;14.38;2.20;;;;;;;;;;5051205;28;20045;-64
2022/09/17 01:25:35;;;;;;;11.80;1.65;;;;;;;;;;5051994;28;20220;-64
2022/09/17 01:28:19;;;;;;;10.65;2.20;;;;;;;;;;5051714;28;20067;-64
2022/09/17 01:30:55;;;;;;;12.50;2.17;;;;;;;;;;5050786;28;20107;-64
2022/09/17 01:33:27;;;;;;;13.20;2.67;;;;;;;;;;5048706;28;20028;-64
2022/09/17 01:36:11;;;;;;;12.88;2.70;;;;;;;;;;5051267;28;20086;-64
2022/09/17 01:38:48;;;;;;;14.48;2.78;;;;;;;;;;5044434;28;20071;-64
2022/09/17 01:41:26;;;;;;;18.95;3.05;;;;;;;;;;5051381;28;20505;-64
2022/09/17 01:44:06;;;;;;;11.65;2.17;;;;;;;;;;5045705;28;20040;-64
2022/09/17 01:46:52;;;;;;;15.20;2.72;;;;;;;;;;5051014;28;20048;-64
2022/09/17 01:49:19;;;;;;;11.32;2.10;;;;;;;;;;5049815;28;20506;-64
2022/09/17 01:51:47;;;;;;;11.80;2.47;;;;;;;;;;5050964;28;20123;-64
2022/09/17 01:54:19;;;;;;;14.77;2.22;;;;;;;;;;5051174;28;20483;-64
2022/09/17 01:56:48;;;;;;;16.90;2.70;;;;;;;;;;5033034;28;20486;-64
2022/09/17 01:59:18;;;;;;;13.60;2.40;;;;;;;;;;5048191;28;20045;-64
2022/09/17 02:01:46;;;;;;;14.25;2.78;;;;;;;;;;5046924;28;20037;-64
2022/09/17 02:04:19;;;;;;;10.48;2.03;;;;;;;;;;5048880;28;20131;-64
2022/09/17 02:06:47;;;;;;;10.30;2.53;;;;;;;;;;5049222;28;20076;-64
2022/09/17 02:09:13;;;;;;;13.07;2.10;;;;;;;;;;5047962;28;20048;-64
2022/09/17 02:11:41;;;;;;;12.32;2.30;;;;;;;;;;5049184;28;20045;-64
2022/09/17 02:14:16;;;;;;;16.50;2.45;;;;;;;;;;5042827;28;20043;-63
2022/09/17 02:16:45;;;;;;;16.00;2.40;;;;;;;;;;5051470;28;20043;-64
2022/09/17 02:19:23;;;;;;;12.85;2.38;;;;;;;;;;5050177;28;20036;-64
2022/09/17 02:21:57;;;;;;;10.55;2.00;;;;;;;;;;5015243;28;20487;-64
2022/09/17 02:24:24;;;;;;;10.98;1.92;;;;;;;;;;5033507;28;20045;-64
2022/09/17 02:27:01;;;;;;;14.75;1.83;;;;;;;;;;5051873;28;20055;-64
2022/09/17 02:29:38;;;;;;;14.32;2.63;;;;;;;;;;5049129;28;20055;-64
2022/09/17 02:32:04;;;;;;;10.18;1.88;;;;;;;;;;5049645;28;20501;-64
2022/09/17 02:34:30;;;;;;;13.65;2.40;;;;;;;;;;5050933;28;20049;-64
2022/09/17 02:36:59;;;;;;;11.27;2.00;;;;;;;;;;5047146;28;20107;-64
2022/09/17 02:39:26;;;;;;;12.38;2.17;;;;;;;;;;5046165;28;20037;-64
2022/09/17 02:41:54;;;;;;;11.13;2.55;;;;;;;;;;5049537;28;20037;-64
2022/09/17 02:44:23;;;;;;;15.57;3.15;;;;;;;;;;5051212;28;20498;-64
2022/09/17 02:47:02;;;;;;;13.48;2.25;;;;;;;;;;5050466;28;20051;-64
2022/09/17 02:49:42;;;;;;;14.48;1.70;;;;;;;;;;5049656;28;20064;-64
2022/09/17 02:52:26;;;;;;;10.68;1.85;;;;;;;;;;5049848;28;20091;-64
2022/09/17 02:54:59;;;;;;;11.25;1.67;;;;;;;;;;5045612;28;20068;-64
2022/09/17 02:57:45;;;;;;;12.07;2.25;;;;;;;;;;5049864;28;20037;-64
2022/09/17 03:00:11;;;;;;;9.00;1.50;;;;;;;;;;5046623;28;20032;-64
2022/09/17 03:02:42;;;;;;;11.10;2.30;;;;;;;;;;5048538;28;20040;-64
2022/09/17 03:05:09;;;;;;;12.15;2.22;;;;;;;;;;5033216;28;20403;-64
2022/09/17 03:07:35;;;;;;;13.20;1.90;;;;;;;;;;5050469;28;20044;-64
2022/09/17 03:10:01;;;;;;;9.45;1.40;;;;;;;;;;5049669;28;20041;-64
2022/09/17 03:12:28;;;;;;;7.90;1.58;;;;;;;;;;5049883;28;20086;-64
2022/09/17 03:14:54;;;;;;;15.68;1.88;;;;;;;;;;5052691;28;20053;-64
2022/09/17 03:17:20;;;;;;;9.50;1.58;;;;;;;;;;5041585;28;20384;-64
2022/09/17 03:19:46;;;;;;;16.88;2.28;;;;;;;;;;5054565;28;20043;-64
2022/09/17 03:22:12;;;;;;;10.82;2.28;;;;;;;;;;5054228;28;20036;-63
2022/09/17 03:24:38;;;;;;;11.50;2.55;;;;;;;;;;5034042;28;20048;-64
2022/09/17 03:27:04;;;;;;;12.05;1.95;;;;;;;;;;5054610;28;20041;-64
2022/09/17 03:29:30;;;;;;;11.00;1.60;;;;;;;;;;5039657;28;20049;-64
2022/09/17 03:31:56;;;;;;;14.27;1.92;;;;;;;;;;5049405;28;20033;-64
2022/09/17 03:34:23;;;;;;;8.88;1.85;;;;;;;;;;5026761;28;20083;-64
2022/09/17 03:36:49;;;;;;;12.98;2.08;;;;;;;;;;5050995;28;20435;-64
2022/09/17 03:39:15;;;;;;;10.82;2.05;;;;;;;;;;5031452;28;20048;-65
2022/09/17 03:41:41;;;;;;;12.50;2.10;;;;;;;;;;5052555;28;20114;-64
2022/09/17 03:44:09;;;;;;;11.48;1.75;;;;;;;;;;5052846;28;20506;-64
2022/09/17 03:46:35;;;;;;;5.85;1.33;;;;;;;;;;5036276;28;20120;-64
2022/09/17 03:49:01;;;;;;;10.68;1.80;;;;;;;;;;5053223;28;20051;-64
2022/09/17 03:51:27;;;;;;;8.23;2.00;;;;;;;;;;5051312;28;20044;-64
2022/09/17 03:53:53;;;;;;;6.00;1.48;;;;;;;;;;5053392;28;20147;-64
2022/09/17 03:56:19;;;;;;;10.10;1.95;;;;;;;;;;5050378;28;20482;-64
2022/09/17 03:58:45;;;;;;;5.90;1.23;;;;;;;;;;5052269;28;20123;-64
2022/09/17 04:01:11;;;;;;;10.07;1.42;;;;;;;;;;5047436;28;20082;-64
2022/09/17 04:03:37;;;;;;;8.45;1.20;;;;;;;;;;5050217;28;20139;-64
2022/09/17 04:06:03;;;;;;;9.90;1.88;;;;;;;;;;5047713;28;20047;-64
2022/09/17 04:08:29;;;;;;;12.00;1.27;;;;;;;;;;5051047;28;20056;-64
2022/09/17 04:10:55;;;;;;;7.45;1.20;;;;;;;;;;5048295;28;20048;-64
2022/09/17 04:13:21;;;;;;;10.23;1.55;;;;;;;;;;5052976;28;20564;-64
2022/09/17 04:15:47;;;;;;;7.88;1.38;;;;;;;;;;5035343;28;20044;-64
2022/09/17 04:18:14;;;;;;;7.88;1.20;;;;;;;;;;5050020;28;20029;-64
2022/09/17 04:20:40;;;;;;;10.25;1.10;;;;;;;;;;5047673;28;20041;-64
2022/09/17 04:23:06;;;;;;;13.55;1.48;;;;;;;;;;5049163;28;20033;-64
2022/09/17 04:25:32;;;;;;;19.98;1.75;;;;;;;;;;5050257;28;20820;-63
2022/09/17 04:27:58;;;;;;;11.23;2.05;;;;;;;;;;5049928;28;20037;-64
2022/09/17 04:30:24;;;;;;;11.07;1.70;;;;;;;;;;5047286;28;20384;-64
2022/09/17 04:32:50;;;;;;;16.58;1.73;;;;;;;;;;5048202;28;20103;-64
2022/09/17 04:35:16;;;;;;;11.52;1.63;;;;;;;;;;5042201;28;20106;-64
2022/09/17 04:37:43;;;;;;;10.65;1.70;;;;;;;;;;5050798;28;20112;-63
2022/09/17 04:40:09;;;;;;;6.55;1.85;;;;;;;;;;5032281;28;20048;-64
2022/09/17 04:42:35;;;;;;;6.50;1.65;;;;;;;;;;5049719;28;20033;-64
2022/09/17 04:45:01;;;;;;;8.70;1.77;;;;;;;;;;5048069;28;20091;-64
2022/09/17 04:47:27;;;;;;;11.75;1.52;;;;;;;;;;5051309;28;20041;-64
2022/09/17 04:49:53;;;;;;;11.32;1.83;;;;;;;;;;5046163;28;20041;-64
2022/09/17 04:52:19;;;;;;;9.73;1.50;;;;;;;;;;5048656;28;20033;-64
2022/09/17 04:54:45;;;;;;;9.20;1.55;;;;;;;;;;5047037;28;20127;-64
2022/09/17 04:57:11;;;;;;;12.65;1.50;;;;;;;;;;5045127;28;20116;-64
2022/09/17 04:59:37;;;;;;;9.07;1.40;;;;;;;;;;5047592;28;20093;-64
2022/09/17 05:02:03;;;;;;;10.20;1.92;;;;;;;;;;5048792;28;20048;-64
2022/09/17 05:04:29;;;;;;;9.98;1.63;;;;;;;;;;5030139;28;20055;-64
2022/09/17 05:06:55;;;;;;;10.60;2.17;;;;;;;;;;5028529;28;20478;-64
2022/09/17 05:09:21;;;;;;;12.35;1.73;;;;;;;;;;5028273;28;20049;-64
2022/09/17 05:11:47;;;;;;;9.25;1.50;;;;;;;;;;5028728;28;20530;-64
2022/09/17 05:14:13;;;;;;;11.38;1.48;;;;;;;;;;5046145;28;20148;-63
2022/09/17 05:16:39;;;;;;;10.90;1.35;;;;;;;;;;5043650;28;20090;-64
2022/09/17 05:19:06;;;;;;;10.68;1.70;;;;;;;;;;5046385;28;20882;-64
2022/09/17 05:21:33;;;;;;;7.00;1.92;;;;;;;;;;5045041;28;20506;-64
2022/09/17 05:24:00;;;;;;;7.93;1.50;;;;;;;;;;5049732;28;20037;-64
2022/09/17 05:26:26;;;;;;;9.05;1.35;;;;;;;;;;5047022;28;20115;-64
2022/09/17 05:28:52;;;;;;;7.32;1.50;;;;;;;;;;5049128;28;20033;-64
2022/09/17 05:31:18;;;;;;;12.80;2.13;;;;;;;;;;5049170;28;20119;-64
2022/09/17 05:33:44;;;;;;;12.60;1.38;;;;;;;;;;5049241;28;20037;-63
2022/09/17 05:36:10;;;;;;;6.75;1.10;;;;;;;;;;5031313;28;20418;-64
2022/09/17 05:38:37;;;;;;;8.02;1.35;;;;;;;;;;5051174;28;20075;-64
2022/09/17 05:41:04;;;;;;;9.90;1.90;;;;;;;;;;5048167;28;20068;-63
2022/09/17 05:43:30;;;;;;;8.50;1.63;;;;;;;;;;5051106;28;20045;-63
2022/09/17 05:46:00;;;;;;;9.70;1.48;;;;;;;;;;5037238;28;20041;-63
2022/09/17 05:48:26;;;;;;;5.05;1.17;;;;;;;;;;5048921;28;20493;-63
2022/09/17 05:50:54;;;;;;;12.40;1.60;;;;;;;;;;5049714;28;20040;-64
2022/09/17 05:53:20;;;;;;;10.85;1.85;;;;;;;;;;5041214;28;20037;-64
2022/09/17 05:55:46;;;;;;;8.07;2.03;;;;;;;;;;5047511;28;20048;-64
2022/09/17 05:58:13;;;;;;;8.30;1.33;;;;;;;;;;5024375;28;20041;-64
2022/09/17 06:00:40;;;;;;;10.68;1.60;;;;;;;;;;5034731;28;20107;-64
2022/09/17 06:03:06;;;;;;;12.50;1.52;;;;;;;;;;5085498;22;20051;-66
2022/09/17 06:05:32;;;;;;;7.00;1.25;;;;;;;;;;5102985;28;20032;-66
2022/09/17 06:07:58;;;;;;;15.05;1.60;;;;;;;;;;5109166;28;20047;-67
2022/09/17 06:10:24;;;;;;;7.90;1.55;;;;;;;;;;5105995;28;20057;-67
2022/09/17 06:12:55;;;;;;;10.68;1.52;;;;;;;;;;5104273;27;20051;-67
2022/09/17 06:15:21;;;;;;;10.65;1.50;;;;;;;;;;5099745;28;20515;-67
2022/09/17 06:17:47;;;;;;;6.20;1.40;;;;;;;;;;5100603;28;20118;-67
2022/09/17 06:20:15;;;;;;;7.13;1.40;;;;;;;;;;5106354;28;20127;-67
2022/09/17 06:22:41;;;;;;;6.65;1.27;;;;;;;;;;5106852;28;20047;-67
2022/09/17 06:25:07;;;;;;;8.15;1.20;;;;;;;;;;5110379;28;20040;-67
2022/09/17 06:27:33;;;;;;;11.60;2.08;;;;;;;;;;5100530;28;20042;-67
2022/09/17 06:30:00;;;;;;;10.00;1.63;;;;;;;;;;5104926;28;20048;-67
2022/09/17 06:32:26;;;;;;;8.15;1.60;;;;;;;;;;5104006;27;20484;-66
2022/09/17 06:34:54;;;;;;;12.88;2.67;;;;;;;;;;5106273;28;20043;-67
2022/09/17 06:37:20;;;;;;;7.95;1.50;;;;;;;;;;5106043;28;20447;-67
2022/09/17 06:39:46;;;;;;;6.95;1.15;;;;;;;;;;5102844;28;20114;-67
2022/09/17 06:42:12;;;;;;;5.78;1.35;;;;;;;;;;5106196;27;20044;-67
2022/09/17 06:44:39;;;;;;;7.10;1.50;;;;;;;;;;5108805;28;20067;-67
2022/09/17 06:47:06;;;;;;;11.10;1.33;;;;;;;;;;5103607;28;20055;-67
2022/09/17 06:49:32;;;;;;;7.65;1.88;;;;;;;;;;5108091;28;20079;-67
2022/09/17 06:51:58;;;;;;;7.53;1.90;;;;;;;;;;5102970;28;20074;-67
2022/09/17 06:54:24;;;;;;;8.73;1.38;;;;;;;;;;5102943;28;20079;-67
2022/09/17 06:56:50;;;;;;;8.07;1.30;;;;;;;;;;5109774;28;20046;-67
2022/09/17 06:59:17;;;;;;;7.05;1.52;;;;;;;;;;5103495;28;20035;-67
2022/09/17 07:01:43;;;;;;;8.23;1.13;;;;;;;;;;5105041;28;20031;-67
2022/09/17 07:04:09;;;;;;;8.43;1.38;;;;;;;;;;5103773;28;20043;-67
2022/09/17 07:06:35;;;;;;;6.45;1.30;;;;;;;;;;5106477;28;20054;-66
2022/09/17 07:09:01;;;;;;;6.25;1.38;;;;;;;;;;5107714;28;20082;-67
2022/09/17 07:11:30;;;;;;;10.95;1.40;;;;;;;;;;5104599;28;20100;-67
2022/09/17 07:13:56;;;;;;;5.47;1.13;;;;;;;;;;5106656;28;20075;-67
2022/09/17 07:16:22;;;;;;;9.07;1.25;;;;;;;;;;5105329;28;20036;-67
2022/09/17 07:18:48;;;;;;;6.82;1.52;;;;;;;;;;5106406;28;20054;-67
2022/09/17 07:21:15;;;;;;;9.60;1.63;;;;;;;;;;5106514;28;20031;-67
2022/09/17 07:23:41;;;;;;;7.78;1.55;;;;;;;;;;5108539;28;20039;-66
2022/09/17 07:26:08;;;;;;;8.65;1.45;;;;;;;;;;5117099;28;20054;-67
2022/09/17 07:28:34;;;;;;;5.90;1.30;;;;;;;;;;5108948;28;20119;-67
2022/09/17 07:31:03;;;;;;;7.18;1.55;;;;;;;;;;5102095;28;20039;-67
2022/09/17 07:33:29;;;;;;;8.35;1.45;;;;;;;;;;5106745;28;20047;-67
2022/09/17 07:35:56;;;;;;;9.48;1.35;;;;;;;;;;5109828;28;20095;-67
2022/09/17 07:38:22;;;;;;;7.20;1.27;;;;;;;;;;5103017;28;20047;-67
2022/09/17 07:40:54;;;;;;;5.70;1.23;;;;;;;;;;5106061;28;20031;-67
2022/09/17 07:43:20;;;;;;;5.43;1.10;;;;;;;;;;5105012;28;20036;-67
2022/09/17 07:45:46;;;;;;;9.00;1.38;;;;;;;;;;5108181;28;20084;-67
2022/09/17 07:48:12;;;;;;;8.60;1.05;;;;;;;;;;5110562;28;20127;-67
2022/09/17 07:50:38;;;;;;;6.18;1.02;;;;;;;;;;5108964;28;20040;-67
2022/09/17 07:53:05;;;;;;;8.77;1.88;;;;;;;;;;5106191;28;20508;-67
2022/09/17 07:55:31;;;;;;;9.70;1.20;;;;;;;;;;5108257;28;20447;-67
2022/09/17 07:57:57;;;;;;;9.02;1.00;;;;;;;;;;5112244;28;20032;-67
2022/09/17 08:00:24;;;;;;;8.75;1.38;;;;;;;;;;5109678;28;20036;-67
2022/09/17 08:02:54;;;;;;;10.48;1.33;;;;;;;;;;5103824;28;20036;-68
2022/09/17 08:05:20;;;;;;;9.48;1.80;;;;;;;;;;5110354;27;20107;-67
2022/09/17 08:07:50;;;;;;;7.00;0.90;;;;;;;;;;5111489;28;20497;-67
2022/09/17 08:10:16;;;;;;;6.38;0.90;;;;;;;;;;5114079;27;20050;-68
2022/09/17 08:12:42;;;;;;;9.27;0.90;;;;;;;;;;5117907;27;20079;-67
2022/09/17 08:15:08;;;;;;;6.28;1.15;;;;;;;;;;5114503;28;20052;-67
2022/09/17 08:17:34;;;;;;;7.05;0.93;;;;;;;;;;5109489;28;20039;-67
2022/09/17 08:20:00;;;;;;;7.13;1.48;;;;;;;;;;5102367;27;20550;-65
2022/09/17 08:22:26;;;;;;;7.50;1.05;;;;;;;;;;5103073;28;20489;-64
2022/09/17 08:24:52;;;;;;;6.47;0.85;;;;;;;;;;5104828;28;20066;-65
2022/09/17 08:27:18;;;;;;;7.05;1.17;;;;;;;;;;5100306;27;20110;-64
2022/09/17 08:29:44;;;;;;;5.25;1.00;;;;;;;;;;5113480;28;20035;-64
2022/09/17 08:32:11;;;;;;;7.60;1.20;;;;;;;;;;5097174;27;20038;-64
2022/09/17 08:34:37;;;;;;;4.00;1.30;;;;;;;;;;5104029;28;20044;-65
2022/09/17 08:37:03;;;;;;;16.40;1.05;;;;;;;;;;5105455;28;20492;-64
2022/09/17 08:39:29;;;;;;;2.33;0.70;;;;;;;;;;5098690;28;20051;-63
2022/09/17 08:42:01;;;;;;;3.92;0.65;;;;;;;;;;5106738;27;20157;-63
2022/09/17 08:44:31;;;;;;;6.18;0.80;;;;;;;;;;5108599;28;20359;-64
2022/09/17 08:46:57;;;;;;;4.88;0.80;;;;;;;;;;5104650;28;20047;-64
2022/09/17 08:49:27;;;;;;;5.43;0.80;;;;;;;;;;5107392;28;20036;-64
2022/09/17 08:52:11;;;;;;;7.93;1.90;;;;;;;;;;5113247;27;20031;-64
2022/09/17 08:54:49;;;;;;;5.22;0.75;;;;;;;;;;5103061;28;20065;-64
2022/09/17 08:57:18;;;;;;;3.83;0.98;;;;;;;;;;5113677;27;20758;-64
2022/09/17 08:59:57;;;;;;;3.28;1.00;;;;;;;;;;5108171;27;20031;-64
2022/09/17 09:02:38;;;;;;;4.90;0.93;;;;;;;;;;5112705;28;20078;-64
2022/09/17 09:05:32;;;;;;;5.75;1.00;;;;;;;;;;5108236;28;20063;-64
2022/09/17 09:08:02;;;;;;;4.78;0.98;;;;;;;;;;5089278;28;20052;-64
2022/09/17 09:10:32;;;;;;;8.30;1.38;;;;;;;;;;5108547;28;20067;-65
2022/09/17 09:12:59;;;;;;;6.95;1.15;;;;;;;;;;5111092;28;20055;-64
2022/09/17 09:15:32;;;;;;;6.15;1.17;;;;;;;;;;5109681;28;20556;-64
2022/09/17 09:18:02;;;;;;;4.60;0.60;;;;;;;;;;5108843;27;20886;-64
2022/09/17 09:20:33;;;;;;;8.73;0.70;;;;;;;;;;5109552;27;20055;-64
2022/09/17 09:23:03;;;;;;;4.75;0.80;;;;;;;;;;5116587;27;20042;-65
2022/09/17 09:25:33;;;;;;;4.63;0.85;;;;;;;;;;5106428;28;20043;-64
2022/09/17 09:28:05;;;;;;;5.43;0.90;;;;;;;;;;5103392;28;20500;-64
2022/09/17 09:30:39;;;;;;;3.10;0.68;;;;;;;;;;5112016;28;20099;-65
2022/09/17 09:33:11;;;;;;;5.45;0.88;;;;;;;;;;5109312;28;20071;-64
2022/09/17 09:35:40;;;;;;;3.42;0.85;;;;;;;;;;5102599;28;20521;-65
2022/09/17 09:38:06;;;;;;;4.75;0.90;;;;;;;;;;5109094;28;20056;-64
2022/09/17 09:40:35;;;;;;;3.22;0.73;;;;;;;;;;5104972;28;20115;-65
2022/09/17 09:43:03;;;;;;;3.65;0.80;;;;;;;;;;5107495;28;20036;-64
2022/09/17 09:45:32;;;;;;;4.35;0.70;;;;;;;;;;5110390;28;20032;-64
2022/09/17 09:48:03;;;;;;;3.20;0.60;;;;;;;;;;5107893;28;20046;-64
2022/09/17 09:50:35;;;;;;;4.13;0.70;;;;;;;;;;5114203;27;20485;-65
2022/09/17 09:53:14;;;;;;;5.20;0.73;;;;;;;;;;5111947;28;20044;-65
2022/09/17 09:55:58;;;;;;;4.22;0.70;;;;;;;;;;5102991;28;20047;-65
2022/09/17 09:58:31;;;;;;;3.33;0.85;;;;;;;;;;5112017;27;20513;-64
2022/09/17 10:00:57;;;;;;;6.28;0.80;;;;;;;;;;5109212;27;20035;-63
2022/09/17 10:03:27;;;;;;;3.80;0.70;;;;;;;;;;5111531;28;20053;-63
2022/09/17 10:06:10;;;;;;;6.28;0.70;;;;;;;;;;5102674;28;20557;-65
2022/09/17 10:08:37;;;;;;;6.65;0.73;;;;;;;;;;5102848;28;20126;-64
2022/09/17 10:11:05;;;;;;;3.30;0.63;;;;;;;;;;5103860;28;20047;-65
2022/09/17 10:13:34;;;;;;;3.42;0.80;;;;;;;;;;5111224;28;20123;-65
2022/09/17 10:16:19;;;;;;;4.82;0.77;;;;;;;;;;5108730;28;20047;-64
2022/09/17 10:18:46;;;;;;;3.60;0.60;;;;;;;;;;5099487;28;20043;-65
2022/09/17 10:21:22;;;;;;;1.83;0.70;;;;;;;;;;5108627;27;20035;-64
2022/09/17 10:23:49;;;;;;;5.55;0.88;;;;;;;;;;5105201;28;20134;-65
2022/09/17 10:26:22;;;;;;;4.78;0.63;;;;;;;;;;5103109;28;20119;-65
2022/09/17 10:28:50;;;;;;;4.53;0.50;;;;;;;;;;5100847;28;20052;-65
2022/09/17 10:31:17;;;;;;;5.13;0.90;;;;;;;;;;5105216;28;20565;-65
2022/09/17 10:34:02;;;;;;;4.25;0.68;;;;;;;;;;5089612;28;20122;-66
2022/09/17 10:36:40;;;;;;;3.78;0.80;;;;;;;;;;5105718;28;20039;-65
2022/09/17 10:39:19;;;;;;;4.45;0.32;;;;;;;;;;5106411;28;20046;-66
2022/09/17 10:41:55;;;;;;;3.17;0.70;;;;;;;;;;5107837;28;20036;-65
2022/09/17 10:44:22;;;;;;;3.30;1.13;;;;;;;;;;5107185;28;20036;-65
2022/09/17 10:46:49;;;;;;;4.95;0.90;;;;;;;;;;5110898;28;20082;-65
2022/09/17 10:49:23;;;;;;;5.72;1.00;;;;;;;;;;5106235;28;20043;-66
2022/09/17 10:51:50;;;;;;;5.78;1.00;;;;;;;;;;5108323;28;20055;-66
2022/09/17 10:54:26;;;;;;;5.38;0.88;;;;;;;;;;5104762;28;20039;-65
2022/09/17 10:56:54;;;;;;;6.03;0.80;;;;;;;;;;5108611;28;20119;-66
2022/09/17 10:59:23;;;;;;;5.55;1.00;;;;;;;;;;5106620;27;20143;-66
2022/09/17 11:02:08;;;;;;;5.85;1.23;;;;;;;;;;5100806;28;20054;-66
2022/09/17 11:05:07;;;;;;;3.83;0.70;;;;;;;;;;5101189;28;20067;-66
2022/09/17 11:07:47;;;;;;;5.85;0.57;;;;;;;;;;5068967;28;20051;-66
2022/09/17 11:10:13;;;;;;;6.90;0.93;;;;;;;;;;5110353;28;20100;-66
2022/09/17 11:12:40;;;;;;;2.20;0.70;;;;;;;;;;5105530;28;20458;-66
2022/09/17 11:15:16;;;;;;;2.72;0.80;;;;;;;;;;5107864;28;20044;-66
2022/09/17 11:17:55;;;;;;;2.83;0.70;;;;;;;;;;5102066;28;20123;-66
2022/09/17 11:20:32;;;;;;;6.15;1.10;;;;;;;;;;5110391;28;20040;-66
2022/09/17 11:23:01;;;;;;;5.90;1.10;;;;;;;;;;5109463;28;20035;-66
2022/09/17 11:25:42;;;;;;;7.80;1.30;;;;;;;;;;5101539;28;20509;-66
2022/09/17 11:28:22;;;;;;;5.95;1.20;;;;;;;;;;5104763;28;20131;-66
2022/09/17 11:30:54;;;;;;;8.40;1.38;;;;;;;;;;5109734;28;20048;-65
2022/09/17 11:33:35;;;;;;;5.85;1.30;;;;;;;;;;5111169;28;20485;-65
2022/09/17 11:36:03;;;;;;;;;;;;;;;;;;5113672;28;20036;-64
2022/09/17 11:38:35;;;;;;;4.40;1.00;;;;;;;;;;5111307;28;20347;-64
2022/09/17 11:41:07;;;;;;;7.90;1.10;;;;;;;;;;5107076;28;20028;-64
2022/09/17 11:43:35;;;;;;;5.35;1.27;;;;;;;;;;5098041;28;20644;-64
2022/09/17 11:46:10;;;;;;;8.43;1.05;;;;;;;;;;5110610;27;20104;-65
2022/09/17 11:48:39;;;;;;;5.15;1.10;;;;;;;;;;5105531;28;20055;-65
2022/09/17 11:51:20;;;;;;;6.07;0.70;;;;;;;;;;5113064;28;20043;-65
2022/09/17 11:53:55;;;;;;;6.00;0.70;;;;;;;;;;5107388;27;20047;-66
2022/09/17 11:56:28;;;;;;;3.90;0.70;;;;;;;;;;5113321;28;20051;-65
2022/09/17 11:58:54;;;;;;;6.65;0.80;;;;;;;;;;5112996;28;20046;-66
2022/09/17 12:01:25;;;;;;;4.20;0.80;;;;;;;;;;5112607;28;20400;-65
2022/09/17 12:04:17;;;;;;;6.38;1.00;;;;;;;;;;5096364;22;20601;-70
2022/09/17 12:06:48;;;;;;;6.75;0.70;;;;;;;;;;5025157;28;20615;-69
2022/09/17 12:09:24;;;;;;;3.85;0.90;;;;;;;;;;5068159;28;20485;-70
2022/09/17 12:11:55;;;;;;;4.65;1.20;;;;;;;;;;5074662;28;20048;-70
2022/09/17 12:14:34;;;;;;;8.48;0.85;;;;;;;;;;5070699;28;20032;-70
2022/09/17 12:17:01;;;;;;;4.10;0.90;;;;;;;;;;5048869;28;20048;-70
2022/09/17 12:19:39;;;;;;;4.55;1.10;;;;;;;;;;5071318;28;20044;-71
2022/09/17 12:22:08;;;;;;;5.63;0.80;;;;;;;;;;5074197;28;20060;-72
2022/09/17 12:24:34;;;;;;;3.47;0.80;;;;;;;;;;5062521;28;20083;-72
2022/09/17 12:27:13;;;;;;;5.05;0.90;;;;;;;;;;5071859;28;20119;-72
2022/09/17 12:29:39;;;;;;;6.07;1.27;;;;;;;;;;5066092;28;20036;-71
2022/09/17 12:32:05;;;;;;;5.72;0.90;;;;;;;;;;5072783;28;20044;-72
2022/09/17 12:34:39;;;;;;;6.25;0.93;;;;;;;;;;5068837;28;20120;-71
2022/09/17 12:37:21;;;;;;;4.20;1.10;;;;;;;;;;5054653;28;20040;-71
2022/09/17 12:39:47;;;;;;;;;;;;;;;;;;5072871;28;20116;-71
2022/09/17 12:42:20;;;;;;;7.00;1.23;;;;;;;;;;5073958;28;20003;-71
2022/09/17 12:44:58;;;;;;;6.68;1.20;;;;;;;;;;5072522;28;20094;-71
2022/09/17 12:47:27;;;;;;;4.88;1.23;;;;;;;;;;5052211;28;20094;-71
2022/09/17 12:50:02;;;;;;;6.10;1.45;;;;;;;;;;5068274;28;20040;-71
2022/09/17 12:52:47;;;;;;;8.85;1.50;;;;;;;;;;5073636;28;20102;-71
2022/09/17 12:55:30;;;;;;;6.40;1.10;;;;;;;;;;5067660;28;20098;-71
2022/09/17 12:58:15;;;;;;;8.50;1.30;;;;;;;;;;5068401;28;20555;-71
2022/09/17 13:00:44;;;;;;;9.95;1.33;;;;;;;;;;5066091;28;20252;-70
2022/09/17 13:03:13;;;;;;;9.23;1.48;;;;;;;;;;5066731;28;20028;-71
2022/09/17 13:06:02;;;;;;;13.05;1.88;;;;;;;;;;5055023;28;20494;-70
2022/09/17 13:08:29;;;;;;;10.48;2.20;;;;;;;;;;5070840;28;20465;-70
2022/09/17 13:10:55;;;;;;;8.32;1.75;;;;;;;;;;5067597;28;20117;-71
2022/09/17 13:13:27;;;;;;;8.07;1.60;;;;;;;;;;5070414;28;20082;-70
2022/09/17 13:16:12;;;;;;;11.75;1.63;;;;;;;;;;5066488;28;20047;-70
2022/09/17 13:18:58;;;;;;;6.65;1.30;;;;;;;;;;5047397;28;20079;-70
2022/09/17 13:21:44;;;;;;;6.93;1.30;;;;;;;;;;5066183;28;20498;-71
2022/09/17 13:24:21;;;;;;;8.70;1.77;;;;;;;;;;5069805;28;20445;-70
2022/09/17 13:26:47;;;;;;;6.07;1.38;;;;;;;;;;5068638;28;20033;-69
2022/09/17 13:29:33;;;;;;;7.00;1.48;;;;;;;;;;5059781;28;20035;-70
2022/09/17 13:32:00;;;;;;;9.75;1.63;;;;;;;;;;5065838;28;20068;-70
2022/09/17 13:34:28;;;;;;;11.70;1.83;;;;;;;;;;5059552;28;20045;-70
2022/09/17 13:36:55;;;;;;;8.07;1.48;;;;;;;;;;5057319;28;20047;-71
2022/09/17 13:39:33;;;;;;;10.35;1.63;;;;;;;;;;5068238;28;20407;-70
2022/09/17 13:42:13;;;;;;;8.32;1.63;;;;;;;;;;5070579;28;20040;-71
2022/09/17 13:44:51;;;;;;;8.77;1.80;;;;;;;;;;5064394;28;20055;-71
2022/09/17 13:47:19;;;;;;;8.38;1.70;;;;;;;;;;5068740;28;20045;-71
2022/09/17 13:49:48;;;;;;;7.93;1.67;;;;;;;;;;5071123;28;20520;-70
2022/09/17 13:52:19;;;;;;;11.52;1.90;;;;;;;;;;5065789;28;20218;-68
2022/09/17 13:54:45;;;;;;;9.60;1.60;;;;;;;;;;5046440;28;20124;-68
2022/09/17 13:57:13;;;;;;;7.53;1.45;;;;;;;;;;5065853;28;20521;-69
2022/09/17 13:59:52;;;;;;;8.38;1.77;;;;;;;;;;5067309;28;20060;-69
2022/09/17 14:02:18;;;;;;;9.00;1.73;;;;;;;;;;5071569;28;20052;-71
2022/09/17 14:04:45;;;;;;;7.95;1.25;;;;;;;;;;5066001;28;20048;-69
2022/09/17 14:07:25;;;;;;;10.18;1.52;;;;;;;;;;5062736;28;20460;-69
2022/09/17 14:09:53;;;;;;;6.07;1.40;;;;;;;;;;5068045;28;20046;-69
2022/09/17 14:12:43;;;;;;;5.72;1.20;;;;;;;;;;5068791;28;20075;-70
2022/09/17 14:15:28;;;;;;;9.27;1.40;;;;;;;;;;5064509;28;20043;-69
2022/09/17 14:17:54;;;;;;;5.15;1.33;;;;;;;;;;5067401;28;20047;-69
2022/09/17 14:20:20;;;;;;;7.20;1.73;;;;;;;;;;5069332;28;20036;-71
2022/09/17 14:22:56;;;;;;;7.18;1.35;;;;;;;;;;5071259;28;20032;-70
2022/09/17 14:25:28;;;;;;;5.40;1.20;;;;;;;;;;5067106;28;20041;-70
2022/09/17 14:27:57;;;;;;;10.98;1.58;;;;;;;;;;5069582;28;20140;-71
2022/09/17 14:30:25;;;;;;;9.30;1.80;;;;;;;;;;5061503;28;20049;-71
2022/09/17 14:33:02;;;;;;;8.68;1.98;;;;;;;;;;5070944;28;20494;-71
2022/09/17 14:35:28;;;;;;;7.78;1.50;;;;;;;;;;5070118;28;20049;-71
2022/09/17 14:37:57;;;;;;;7.72;1.42;;;;;;;;;;5069005;28;20052;-71
2022/09/17 14:40:23;;;;;;;8.98;1.50;;;;;;;;;;5070396;28;20052;-71
2022/09/17 14:42:51;;;;;;;5.13;1.00;;;;;;;;;;5069905;28;20040;-71
2022/09/17 14:45:21;;;;;;;7.90;1.40;;;;;;;;;;5065180;28;20036;-71
2022/09/17 14:47:47;;;;;;;11.60;1.63;;;;;;;;;;5067863;28;20071;-71
2022/09/17 14:50:20;;;;;;;10.82;1.75;;;;;;;;;;5068092;28;20044;-70
2022/09/17 14:52:51;;;;;;;5.82;1.15;;;;;;;;;;5068760;28;20081;-71
2022/09/17 14:55:18;;;;;;;6.35;1.05;;;;;;;;;;5070835;28;20043;-71